Time;durP1;ratioP1;P1;durP2;ratioP2;P2;SDS_P1;SDS_P2;PMS_P1;PMS_P2;Temp;Humidity;BMP_temperature;BMP_pressure;BME280_temperature;BME280_humidity;BME280_pressure;Samples;Min_cycle;Max_cycle;Signal;HPM_P1;HPM_P2
2021/01/20 00:00:17;;;;;;;3.15;1.33;;;;;;;2.92;62.60;96637.00;4949893;28;20145;-77
2021/01/20 00:02:42;;;;;;;3.63;1.75;;;;;;;2.96;63.53;96627.88;4947729;29;20126;-77
2021/01/20 00:05:08;;;;;;;2.45;1.40;;;;;;;2.99;63.39;96636.97;4949627;28;20097;-76
2021/01/20 00:07:34;;;;;;;2.47;1.30;;;;;;;2.95;62.43;96628.88;4947819;28;20039;-77
2021/01/20 00:10:00;;;;;;;2.08;0.90;;;;;;;3.05;63.44;96630.19;4948825;29;20043;-77
2021/01/20 00:12:25;;;;;;;2.60;1.10;;;;;;;3.22;61.93;96635.59;4932237;29;20031;-77
2021/01/20 00:14:51;;;;;;;1.63;1.10;;;;;;;3.29;62.21;96626.03;4932386;29;20039;-77
2021/01/20 00:17:17;;;;;;;1.77;0.95;;;;;;;2.77;63.85;96629.56;4948284;29;20058;-77
2021/01/20 00:19:42;;;;;;;2.42;1.15;;;;;;;2.74;61.82;96630.00;4947598;29;20036;-77
2021/01/20 00:22:10;;;;;;;2.80;1.05;;;;;;;2.77;61.90;96621.09;4920628;28;20548;-78
2021/01/20 00:24:37;;;;;;;1.85;1.33;;;;;;;3.06;63.70;96627.41;4931463;29;20027;-77
2021/01/20 00:27:04;;;;;;;2.28;0.90;;;;;;;3.13;62.67;96617.06;4919900;29;20058;-77
2021/01/20 00:29:29;;;;;;;2.65;1.00;;;;;;;3.15;62.54;96615.88;4947291;29;20039;-77
2021/01/20 00:31:55;;;;;;;1.90;1.00;;;;;;;3.18;61.92;96609.50;4931311;28;20055;-77
2021/01/20 00:34:21;;;;;;;3.30;1.05;;;;;;;3.16;61.66;96609.72;4934594;29;20041;-77
2021/01/20 00:36:46;;;;;;;1.65;0.90;;;;;;;3.15;63.09;96608.16;4934893;29;20426;-77
2021/01/20 00:39:12;;;;;;;2.15;1.20;;;;;;;3.24;61.97;96607.88;4939871;29;20031;-77
2021/01/20 00:41:37;;;;;;;2.40;1.20;;;;;;;3.19;62.12;96599.00;4935707;29;20138;-77
2021/01/20 00:44:04;;;;;;;1.95;0.93;;;;;;;3.21;60.25;96595.44;4951619;29;20033;-77
2021/01/20 00:46:29;;;;;;;2.03;1.10;;;;;;;3.19;62.99;96587.94;4934277;29;20043;-77
2021/01/20 00:48:55;;;;;;;2.63;0.80;;;;;;;3.15;62.04;96590.16;4952751;29;20406;-77
2021/01/20 00:51:20;;;;;;;2.55;0.98;;;;;;;3.27;61.51;96597.94;4948410;28;20039;-77
2021/01/20 00:53:46;;;;;;;3.13;1.58;;;;;;;3.35;62.29;96586.59;4957636;28;20455;-76
2021/01/20 00:56:12;;;;;;;1.88;0.90;;;;;;;3.37;61.73;96582.03;4952287;29;20083;-76
2021/01/20 00:58:38;;;;;;;1.98;1.10;;;;;;;3.36;60.06;96586.41;4951558;29;20061;-77
2021/01/20 01:01:04;;;;;;;1.83;0.90;;;;;;;3.49;60.26;96575.16;4940624;29;20249;-77
2021/01/20 01:03:32;;;;;;;1.92;0.73;;;;;;;3.45;59.90;96574.03;4932094;29;20170;-77
2021/01/20 01:06:00;;;;;;;1.80;0.80;;;;;;;3.43;59.20;96570.88;4950000;29;20043;-78
2021/01/20 01:08:26;;;;;;;2.50;1.15;;;;;;;3.52;60.42;96574.75;4934892;29;20035;-78
2021/01/20 01:10:53;;;;;;;2.40;0.90;;;;;;;3.49;61.41;96582.88;4951211;29;20411;-77
2021/01/20 01:13:20;;;;;;;2.30;1.00;;;;;;;3.48;60.27;96573.63;4950958;29;20436;-78
2021/01/20 01:15:45;;;;;;;2.05;0.93;;;;;;;3.53;61.10;96576.34;4954151;28;20126;-77
2021/01/20 01:18:11;;;;;;;1.50;0.90;;;;;;;3.61;59.07;96588.13;4934763;29;20509;-77
2021/01/20 01:20:40;;;;;;;1.23;0.90;;;;;;;3.55;60.01;96574.31;4952549;28;20035;-76
2021/01/20 01:23:06;;;;;;;1.80;0.88;;;;;;;3.49;58.83;96577.75;4936511;28;20031;-77
2021/01/20 01:25:32;;;;;;;1.77;0.60;;;;;;;3.54;61.43;96585.59;4949297;28;20035;-77
2021/01/20 01:27:58;;;;;;;1.90;0.90;;;;;;;3.59;60.19;96589.34;4934604;29;20566;-78
2021/01/20 01:30:24;;;;;;;3.15;0.88;;;;;;;3.58;59.74;96585.97;4935237;29;20039;-77
2021/01/20 01:32:50;;;;;;;1.83;0.85;;;;;;;3.50;59.98;96579.31;4957493;28;20105;-78
2021/01/20 01:35:16;;;;;;;1.10;0.70;;;;;;;3.55;59.85;96579.47;4935109;29;20039;-77
2021/01/20 01:37:42;;;;;;;1.63;0.82;;;;;;;3.64;60.71;96581.78;4956291;28;20328;-77
2021/01/20 01:40:08;;;;;;;1.13;0.68;;;;;;;3.59;60.89;96579.06;4952911;28;20566;-78
2021/01/20 01:42:34;;;;;;;2.05;0.90;;;;;;;3.51;59.12;96577.53;4950461;29;20036;-77
2021/01/20 01:45:00;;;;;;;1.95;0.98;;;;;;;3.53;60.68;96573.75;4934956;29;20604;-76
2021/01/20 01:47:26;;;;;;;1.58;1.02;;;;;;;3.62;61.18;96578.63;4938543;29;20086;-77
2021/01/20 01:49:55;;;;;;;1.92;1.00;;;;;;;3.59;59.84;96569.53;4950310;28;20058;-77
2021/01/20 01:52:21;;;;;;;1.98;1.00;;;;;;;3.64;61.35;96574.03;4919641;29;20093;-76
2021/01/20 01:54:52;;;;;;;1.67;0.80;;;;;;;3.26;60.50;96557.00;4951032;29;20130;-77
2021/01/20 01:57:17;;;;;;;1.92;0.82;;;;;;;3.59;60.21;96568.75;4934484;29;20031;-77
2021/01/20 01:59:43;;;;;;;1.65;0.75;;;;;;;3.61;59.62;96562.38;4946592;28;20034;-77
2021/01/20 02:02:10;;;;;;;2.13;0.90;;;;;;;3.55;60.72;96564.03;4935693;28;20055;-77
2021/01/20 02:04:36;;;;;;;1.55;0.60;;;;;;;3.50;60.76;96566.47;4941201;23;20053;-79
2021/01/20 02:07:02;;;;;;;1.88;1.08;;;;;;;3.54;60.71;96554.72;4891711;29;20047;-78
2021/01/20 02:09:28;;;;;;;2.20;1.30;;;;;;;3.59;60.65;96558.47;4907679;29;20029;-78
2021/01/20 02:12:14;;;;;;;1.70;0.73;;;;;;;3.67;60.41;96560.75;4894291;29;20135;-78
2021/01/20 02:15:11;;;;;;;1.80;0.88;;;;;;;3.50;60.66;96555.38;4893589;29;20032;-78
2021/01/20 02:18:02;;;;;;;1.38;0.63;;;;;;;3.51;59.29;96546.66;4872553;29;20043;-78
2021/01/20 02:20:34;;;;;;;2.28;1.30;;;;;;;3.41;59.87;96549.75;4892806;29;20043;-78
2021/01/20 02:23:03;;;;;;;2.15;0.93;;;;;;;3.63;60.74;96546.72;4894704;29;20101;-78
2021/01/20 02:25:31;;;;;;;1.52;1.00;;;;;;;3.67;60.14;96542.72;4875400;29;20036;-78
2021/01/20 02:28:08;;;;;;;2.05;1.08;;;;;;;3.52;61.89;96546.44;4893880;29;20040;-78
2021/01/20 02:30:35;;;;;;;2.53;0.80;;;;;;;3.33;60.53;96545.66;4892560;29;20063;-78
2021/01/20 02:33:02;;;;;;;2.60;1.35;;;;;;;3.28;60.74;96542.16;4909091;29;20033;-77
2021/01/20 02:35:28;;;;;;;1.48;0.70;;;;;;;3.39;61.17;96538.84;4891729;29;20107;-78
2021/01/20 02:37:56;;;;;;;1.80;0.85;;;;;;;3.33;61.10;96524.28;4881552;29;20478;-78
2021/01/20 02:40:21;;;;;;;2.03;0.95;;;;;;;3.25;61.04;96516.84;4894904;29;20029;-78
2021/01/20 02:42:47;;;;;;;1.98;1.17;;;;;;;3.42;60.84;96530.72;4893629;29;20243;-78
2021/01/20 02:45:14;;;;;;;2.42;0.98;;;;;;;3.47;60.53;96522.34;4877615;29;20468;-78
2021/01/20 02:47:41;;;;;;;3.60;0.98;;;;;;;3.52;60.75;96518.13;4884551;29;20425;-78
2021/01/20 02:50:08;;;;;;;2.40;1.05;;;;;;;3.45;60.39;96521.78;4920733;29;20038;-78
2021/01/20 02:52:48;;;;;;;2.40;1.58;;;;;;;3.18;61.82;96527.19;4922182;29;20032;-78
2021/01/20 02:55:15;;;;;;;2.63;0.70;;;;;;;3.34;60.82;96516.34;4890921;29;20059;-78
2021/01/20 02:57:41;;;;;;;1.65;0.90;;;;;;;3.47;62.13;96520.56;4923355;29;20058;-79
2021/01/20 03:00:08;;;;;;;2.35;1.00;;;;;;;3.44;60.89;96523.56;4894124;29;20064;-77
2021/01/20 03:02:35;;;;;;;2.70;1.00;;;;;;;3.46;60.47;96513.06;4879804;29;20036;-78
2021/01/20 03:05:02;;;;;;;3.17;0.98;;;;;;;3.34;60.87;96500.09;4899920;29;20078;-77
2021/01/20 03:07:29;;;;;;;2.80;0.90;;;;;;;3.47;61.04;96505.13;4911553;29;20092;-78
2021/01/20 03:09:55;;;;;;;2.67;1.00;;;;;;;3.54;61.07;96502.47;4896772;29;20059;-78
2021/01/20 03:12:26;;;;;;;2.97;0.65;;;;;;;3.41;62.07;96495.69;4895849;29;20068;-79
2021/01/20 03:14:53;;;;;;;2.58;1.10;;;;;;;3.50;61.33;96491.81;4906120;29;20043;-78
2021/01/20 03:17:18;;;;;;;1.65;0.90;;;;;;;3.49;61.83;96487.66;4896352;29;20024;-78
2021/01/20 03:19:44;;;;;;;2.08;1.20;;;;;;;3.42;61.31;96484.38;4898841;29;20039;-79
2021/01/20 03:22:10;;;;;;;1.92;1.20;;;;;;;3.39;61.36;96471.94;4910677;29;20399;-79
2021/01/20 03:24:36;;;;;;;1.77;0.70;;;;;;;3.38;62.10;96478.88;4914023;29;20527;-78
2021/01/20 03:27:02;;;;;;;1.52;0.90;;;;;;;3.41;60.71;96477.69;4907214;29;20040;-78
2021/01/20 03:29:28;;;;;;;1.90;0.90;;;;;;;3.42;61.00;96475.88;4910131;29;20031;-78
2021/01/20 03:31:54;;;;;;;1.77;0.93;;;;;;;3.40;62.21;96475.31;4912571;29;20326;-79
2021/01/20 03:34:20;;;;;;;3.25;1.08;;;;;;;3.23;61.94;96483.59;4912442;29;20040;-78
2021/01/20 03:36:46;;;;;;;2.42;1.08;;;;;;;3.20;62.70;96473.75;4914994;29;20043;-79
2021/01/20 03:39:12;;;;;;;2.10;1.00;;;;;;;3.19;62.10;96462.66;4912159;29;20040;-79
2021/01/20 03:41:37;;;;;;;2.60;1.10;;;;;;;3.17;60.93;96469.81;4896463;29;20107;-78
2021/01/20 03:44:06;;;;;;;3.17;0.95;;;;;;;3.31;62.32;96469.69;4897048;29;20036;-78
2021/01/20 03:46:31;;;;;;;1.83;1.00;;;;;;;3.37;62.05;96469.59;4885911;29;20032;-79
2021/01/20 03:48:56;;;;;;;2.47;1.02;;;;;;;3.47;61.42;96469.09;4897275;29;20024;-78
2021/01/20 03:51:22;;;;;;;2.22;0.98;;;;;;;3.35;60.66;96469.03;4889456;29;20048;-78
2021/01/20 03:53:48;;;;;;;1.77;0.93;;;;;;;3.35;62.43;96465.66;4912334;29;20037;-78
2021/01/20 03:56:14;;;;;;;2.25;1.13;;;;;;;3.31;62.47;96472.25;4906077;29;20164;-78
2021/01/20 03:58:40;;;;;;;2.80;1.25;;;;;;;3.25;61.69;96460.25;4906984;29;20052;-78
2021/01/20 04:01:06;;;;;;;1.83;0.90;;;;;;;3.30;63.09;96448.28;4910788;29;20599;-78
2021/01/20 04:03:32;;;;;;;1.92;1.05;;;;;;;3.37;62.19;96461.09;4912737;29;20818;-78
2021/01/20 04:05:58;;;;;;;1.20;0.80;;;;;;;3.34;62.78;96458.94;4890687;29;20055;-78
2021/01/20 04:08:24;;;;;;;1.88;1.00;;;;;;;3.28;62.31;96447.72;4914974;29;20451;-77
2021/01/20 04:10:50;;;;;;;1.73;0.90;;;;;;;3.33;62.24;96447.09;4911944;29;20036;-78
2021/01/20 04:13:16;;;;;;;3.10;1.10;;;;;;;3.43;62.18;96455.09;4888380;29;20160;-78
2021/01/20 04:15:41;;;;;;;2.25;1.00;;;;;;;3.51;60.86;96447.06;4915332;29;20036;-78
2021/01/20 04:18:07;;;;;;;1.70;0.95;;;;;;;3.48;62.69;96434.63;4916015;29;20399;-78
2021/01/20 04:20:33;;;;;;;2.83;1.40;;;;;;;3.55;61.41;96445.63;4916173;29;20051;-77
2021/01/20 04:22:59;;;;;;;5.15;1.58;;;;;;;3.45;61.48;96434.28;4917455;29;20527;-78
2021/01/20 04:25:25;;;;;;;2.90;1.30;;;;;;;3.48;61.05;96432.06;4915849;29;20051;-77
2021/01/20 04:27:51;;;;;;;3.67;1.17;;;;;;;3.54;62.26;96431.19;4912667;29;20375;-78
2021/01/20 04:30:18;;;;;;;2.65;1.27;;;;;;;3.69;60.99;96424.88;4915560;29;20446;-79
2021/01/20 04:32:43;;;;;;;2.67;1.25;;;;;;;3.59;61.94;96419.47;4917656;29;20044;-78
2021/01/20 04:35:09;;;;;;;1.88;1.02;;;;;;;3.62;62.03;96419.03;4881173;29;20523;-79
2021/01/20 04:37:35;;;;;;;2.00;1.00;;;;;;;3.62;62.12;96419.81;4899843;29;20375;-79
2021/01/20 04:40:02;;;;;;;3.13;1.35;;;;;;;3.64;61.48;96417.78;4916188;29;20028;-78
2021/01/20 04:42:28;;;;;;;3.20;1.25;;;;;;;3.59;62.54;96414.31;4914090;29;20024;-79
2021/01/20 04:44:53;;;;;;;2.28;1.10;;;;;;;3.58;62.24;96420.47;4892640;29;20047;-78
2021/01/20 04:47:20;;;;;;;3.33;1.10;;;;;;;3.60;61.08;96415.88;4894864;29;20036;-78
2021/01/20 04:49:49;;;;;;;2.42;1.42;;;;;;;3.40;62.27;96409.19;4898704;29;20029;-78
2021/01/20 04:52:18;;;;;;;1.92;1.25;;;;;;;3.45;63.42;96411.91;4911388;29;20032;-79
2021/01/20 04:54:45;;;;;;;2.63;1.40;;;;;;;3.37;63.56;96422.50;4916070;29;20103;-79
2021/01/20 04:57:14;;;;;;;2.65;1.48;;;;;;;3.44;63.06;96422.41;4909625;29;20047;-78
2021/01/20 04:59:41;;;;;;;5.13;1.77;;;;;;;3.54;61.53;96418.31;4915494;29;20083;-79
2021/01/20 05:02:09;;;;;;;3.47;1.45;;;;;;;3.59;62.43;96424.63;4900426;29;20071;-78
2021/01/20 05:04:37;;;;;;;2.75;0.95;;;;;;;3.57;62.40;96424.81;4900248;29;20048;-78
2021/01/20 05:07:05;;;;;;;2.55;1.42;;;;;;;3.54;62.08;96423.47;4897479;29;20043;-78
2021/01/20 05:09:31;;;;;;;2.50;1.20;;;;;;;3.67;62.30;96430.25;4916860;29;20168;-78
2021/01/20 05:11:57;;;;;;;3.17;1.25;;;;;;;3.67;61.16;96425.09;4915065;29;20107;-78
2021/01/20 05:14:23;;;;;;;4.47;1.63;;;;;;;3.75;61.07;96418.84;4913365;29;20602;-78
2021/01/20 05:16:50;;;;;;;2.53;1.40;;;;;;;3.74;63.02;96427.56;4915731;29;20032;-79
2021/01/20 05:19:17;;;;;;;2.72;1.58;;;;;;;3.84;61.67;96422.69;4897079;29;20123;-78
2021/01/20 05:22:08;;;;;;;4.05;1.85;;;;;;;3.62;61.99;96419.81;4900076;29;20037;-77
2021/01/20 05:24:35;;;;;;;2.50;1.40;;;;;;;3.88;63.02;96423.03;4907023;29;20115;-78
2021/01/20 05:27:02;;;;;;;2.05;1.10;;;;;;;3.87;62.02;96427.41;4914823;29;20036;-78
2021/01/20 05:29:28;;;;;;;2.60;1.52;;;;;;;3.80;63.43;96426.69;4910073;29;20028;-77
2021/01/20 05:31:54;;;;;;;2.58;1.45;;;;;;;3.77;62.26;96426.34;4916434;29;20550;-78
2021/01/20 05:34:32;;;;;;;2.38;1.30;;;;;;;3.61;62.53;96420.03;4889125;29;20127;-78
2021/01/20 05:37:11;;;;;;;3.80;1.70;;;;;;;3.49;62.77;96417.41;4913751;29;20510;-78
2021/01/20 05:39:38;;;;;;;3.83;1.60;;;;;;;3.78;63.04;96410.69;4915861;29;20408;-79
2021/01/20 05:42:09;;;;;;;4.13;1.85;;;;;;;3.85;62.38;96406.22;4912490;29;20032;-78
2021/01/20 05:44:37;;;;;;;3.75;2.20;;;;;;;3.96;63.06;96414.19;4902230;29;20040;-78
2021/01/20 05:47:14;;;;;;;3.45;1.58;;;;;;;3.63;63.79;96411.06;4911324;29;20498;-79
2021/01/20 05:49:40;;;;;;;4.35;2.30;;;;;;;3.90;63.76;96410.72;4893497;29;20032;-79
2021/01/20 05:52:14;;;;;;;3.72;1.50;;;;;;;3.69;64.90;96409.44;4909861;29;20028;-77
2021/01/20 05:54:40;;;;;;;3.58;1.73;;;;;;;3.80;65.03;96406.09;4915434;29;20052;-78
2021/01/20 05:57:13;;;;;;;3.47;1.75;;;;;;;3.75;64.29;96405.97;4899653;29;20436;-77
2021/01/20 05:59:39;;;;;;;4.38;1.85;;;;;;;3.93;64.42;96402.56;4904230;29;20709;-78
2021/01/20 06:02:07;;;;;;;3.10;1.58;;;;;;;3.96;63.93;96398.72;4915852;29;20036;-78
2021/01/20 06:04:33;;;;;;;3.53;1.63;;;;;;;4.05;64.79;96403.34;4912295;29;20122;-79
2021/01/20 06:07:02;;;;;;;2.78;1.50;;;;;;;3.93;64.77;96390.44;4909698;29;20554;-77
2021/01/20 06:09:29;;;;;;;2.85;1.83;;;;;;;4.02;64.57;96401.22;4892292;29;20383;-78
2021/01/20 06:11:54;;;;;;;3.22;1.73;;;;;;;4.10;64.63;96397.56;4879983;29;20510;-78
2021/01/20 06:14:20;;;;;;;2.70;1.75;;;;;;;4.07;65.23;96385.09;4906988;29;20036;-78
2021/01/20 06:16:49;;;;;;;3.70;2.38;;;;;;;4.05;64.59;96389.69;4914462;29;20107;-78
2021/01/20 06:19:16;;;;;;;2.92;1.60;;;;;;;4.18;64.64;96386.94;4897367;29;20095;-77
2021/01/20 06:21:42;;;;;;;3.22;1.48;;;;;;;4.27;64.75;96390.72;4909379;29;20537;-78
2021/01/20 06:24:21;;;;;;;4.03;1.83;;;;;;;4.08;65.29;96390.03;4911569;29;20373;-79
2021/01/20 06:27:25;;;;;;;2.25;1.70;;;;;;;3.89;65.61;96398.84;4908551;29;20035;-78
2021/01/20 06:30:36;;;;;;;6.32;2.30;;;;;;;4.02;66.05;96396.06;4905826;29;20435;-78
2021/01/20 06:33:08;;;;;;;3.75;1.80;;;;;;;4.06;66.40;96388.69;4896300;29;20070;-78
2021/01/20 06:35:42;;;;;;;3.72;2.00;;;;;;;4.09;66.19;96388.25;4897157;29;20059;-78
2021/01/20 06:38:26;;;;;;;3.75;2.35;;;;;;;4.12;66.19;96388.56;4909684;29;20115;-79
2021/01/20 06:40:53;;;;;;;4.60;1.85;;;;;;;4.22;66.52;96366.66;4926487;29;20051;-79
2021/01/20 06:43:50;;;;;;;6.03;2.25;;;;;;;4.18;66.49;96381.78;4914844;29;20031;-78
2021/01/20 06:46:19;;;;;;;4.85;2.33;;;;;;;4.17;66.31;96366.53;4873437;29;20123;-78
2021/01/20 06:48:53;;;;;;;3.90;1.95;;;;;;;4.36;65.85;96377.53;4880761;29;20053;-79
2021/01/20 06:51:20;;;;;;;5.45;2.08;;;;;;;4.37;66.30;96374.72;4912947;29;20279;-79
2021/01/20 06:53:59;;;;;;;2.97;2.10;;;;;;;4.30;66.04;96379.19;4896991;29;20020;-79
2021/01/20 06:56:39;;;;;;;4.00;1.95;;;;;;;4.47;65.96;96379.28;4915187;29;20610;-78
2021/01/20 06:59:24;;;;;;;3.60;1.63;;;;;;;4.28;66.58;96378.63;4897551;29;20502;-78
2021/01/20 07:02:02;;;;;;;3.55;1.83;;;;;;;4.16;67.49;96383.00;4914401;29;20036;-77
2021/01/20 07:04:40;;;;;;;3.30;1.70;;;;;;;4.17;66.94;96375.03;4916084;29;20078;-79
2021/01/20 07:07:07;;;;;;;4.43;2.45;;;;;;;4.44;66.67;96375.38;4913239;29;20044;-78
2021/01/20 07:09:51;;;;;;;3.60;1.85;;;;;;;4.31;67.58;96370.44;4914857;29;20040;-78
2021/01/20 07:12:24;;;;;;;5.78;2.15;;;;;;;4.40;66.75;96371.66;4915672;29;20475;-78
2021/01/20 07:14:55;;;;;;;5.45;2.15;;;;;;;4.45;67.69;96363.28;4898151;29;20247;-79
2021/01/20 07:17:22;;;;;;;4.32;2.03;;;;;;;4.46;67.00;96351.97;4898909;29;20123;-78
2021/01/20 07:19:50;;;;;;;5.57;1.77;;;;;;;4.56;67.01;96359.91;4899190;29;20028;-79
2021/01/20 07:22:17;;;;;;;4.15;1.67;;;;;;;4.54;67.35;96361.94;4897308;29;20031;-78
2021/01/20 07:24:42;;;;;;;4.88;1.85;;;;;;;4.52;67.56;96358.78;4912763;29;20048;-77
2021/01/20 07:27:11;;;;;;;3.53;1.60;;;;;;;4.62;67.66;96356.41;4915218;29;20091;-78
2021/01/20 07:29:37;;;;;;;3.15;1.63;;;;;;;4.55;68.11;96350.59;4887800;29;20543;-78
2021/01/20 07:32:04;;;;;;;3.13;2.10;;;;;;;4.65;68.20;96350.81;4899061;29;20032;-78
2021/01/20 07:34:35;;;;;;;4.18;1.73;;;;;;;4.67;67.46;96340.28;4897348;29;20511;-78
2021/01/20 07:37:13;;;;;;;5.00;1.75;;;;;;;4.66;67.86;96346.44;4884775;29;20032;-78
2021/01/20 07:39:39;;;;;;;3.25;1.83;;;;;;;4.84;67.71;96340.38;4913648;29;20452;-79
2021/01/20 07:42:06;;;;;;;3.97;2.13;;;;;;;4.87;67.74;96332.94;4897437;29;20051;-79
2021/01/20 07:44:32;;;;;;;4.28;1.92;;;;;;;4.84;67.33;96335.97;4903464;29;20107;-78
2021/01/20 07:47:02;;;;;;;5.07;2.15;;;;;;;4.77;67.79;96350.81;4909282;29;20475;-78
2021/01/20 07:49:29;;;;;;;4.43;1.70;;;;;;;4.93;67.62;96348.53;4895831;29;20040;-78
2021/01/20 07:52:10;;;;;;;3.10;1.73;;;;;;;4.64;68.24;96345.88;4893937;29;20480;-79
2021/01/20 07:54:37;;;;;;;3.55;1.88;;;;;;;4.86;68.41;96351.22;4897055;29;20032;-79
2021/01/20 07:57:06;;;;;;;4.90;2.10;;;;;;;4.88;68.33;96344.84;4913446;29;20099;-79
2021/01/20 07:59:32;;;;;;;4.25;1.90;;;;;;;5.04;68.11;96339.97;4896899;29;20067;-78
2021/01/20 08:02:06;;;;;;;3.28;1.88;;;;;;;5.04;67.54;96338.19;4891044;29;20032;-79
2021/01/20 08:04:32;;;;;;;3.20;1.50;;;;;;;5.24;67.48;96342.94;4894527;29;20148;-78
2021/01/20 08:06:58;;;;;;;2.95;1.50;;;;;;;5.28;67.88;96338.09;4862376;29;20123;-79
2021/01/20 08:09:56;;;;;;;3.13;1.90;;;;;;;4.86;68.43;96328.00;4893927;29;20032;-79
2021/01/20 08:12:28;;;;;;;2.72;1.58;;;;;;;5.08;67.67;96338.50;4855939;29;20056;-78
2021/01/20 08:14:54;;;;;;;4.03;1.77;;;;;;;5.27;68.18;96331.34;4896148;29;20056;-79
2021/01/20 08:17:20;;;;;;;3.72;1.40;;;;;;;5.44;67.15;96332.19;4910284;29;20107;-78
2021/01/20 08:19:47;;;;;;;2.15;1.30;;;;;;;5.35;67.83;96335.38;4911499;29;20043;-78
2021/01/20 08:22:14;;;;;;;5.00;2.50;;;;;;;5.42;67.37;96330.84;4908647;29;20248;-78
2021/01/20 08:24:47;;;;;;;3.67;1.80;;;;;;;5.25;67.62;96331.59;4866817;29;20439;-78
2021/01/20 08:27:14;;;;;;;5.05;1.88;;;;;;;5.50;67.70;96330.50;4912139;29;20483;-78
2021/01/20 08:29:51;;;;;;;3.20;1.50;;;;;;;5.39;67.24;96339.06;4906104;29;20092;-78
2021/01/20 08:32:19;;;;;;;5.38;1.85;;;;;;;5.55;67.21;96337.50;4912184;29;20040;-79
2021/01/20 08:34:47;;;;;;;3.88;1.40;;;;;;;5.52;67.08;96325.88;4897357;29;20752;-78
2021/01/20 08:37:18;;;;;;;2.55;1.50;;;;;;;5.63;67.20;96329.41;4914399;29;20040;-78
2021/01/20 08:39:57;;;;;;;2.92;1.48;;;;;;;5.25;67.95;96328.22;4884450;29;20120;-77
2021/01/20 08:42:29;;;;;;;5.47;1.55;;;;;;;5.60;67.47;96327.28;4876242;29;20588;-77
2021/01/20 08:45:06;;;;;;;3.63;1.85;;;;;;;5.47;67.43;96324.97;4872450;29;20028;-78
2021/01/20 08:47:35;;;;;;;5.85;1.75;;;;;;;5.48;67.95;96322.16;4893527;29;20029;-77
2021/01/20 08:50:01;;;;;;;3.58;1.48;;;;;;;5.62;67.13;96322.66;4876635;29;20028;-78
2021/01/20 08:52:41;;;;;;;3.58;1.42;;;;;;;5.47;67.82;96317.22;4901232;29;20071;-77
2021/01/20 08:55:09;;;;;;;3.45;1.30;;;;;;;5.79;67.12;96313.13;4902605;29;20036;-77
2021/01/20 08:57:35;;;;;;;2.45;1.60;;;;;;;5.89;66.12;96311.72;4908495;29;20024;-78
2021/01/20 09:00:01;;;;;;;5.60;1.35;;;;;;;5.92;67.13;96312.03;4906490;29;20061;-78
2021/01/20 09:02:27;;;;;;;3.28;1.50;;;;;;;5.95;67.41;96306.41;4893619;29;20059;-77
2021/01/20 09:04:53;;;;;;;3.75;1.20;;;;;;;5.86;67.38;96301.84;4914249;29;20408;-77
2021/01/20 09:07:19;;;;;;;2.60;1.40;;;;;;;6.09;66.60;96306.09;4913807;29;20056;-78
2021/01/20 09:09:45;;;;;;;2.38;1.50;;;;;;;6.06;66.72;96297.00;4902343;29;20060;-78
2021/01/20 09:12:11;;;;;;;2.03;1.13;;;;;;;5.99;66.91;96289.41;4914828;29;20027;-78
2021/01/20 09:14:38;;;;;;;2.58;1.35;;;;;;;6.19;67.05;96294.09;4892701;29;20039;-77
2021/01/20 09:17:04;;;;;;;2.33;1.67;;;;;;;6.06;66.27;96281.50;4898217;29;20075;-78
2021/01/20 09:19:31;;;;;;;4.15;1.77;;;;;;;6.24;66.52;96292.59;4907942;29;20095;-78
2021/01/20 09:21:56;;;;;;;4.13;1.50;;;;;;;6.35;66.10;96294.31;4924110;29;20492;-78
2021/01/20 09:24:21;;;;;;;3.65;1.30;;;;;;;6.37;66.34;96289.69;4902982;29;20032;-77
2021/01/20 09:26:47;;;;;;;2.95;1.40;;;;;;;6.36;66.34;96283.72;4887127;29;20036;-79
2021/01/20 09:29:13;;;;;;;5.43;1.45;;;;;;;6.43;65.63;96285.38;4914133;29;20519;-78
2021/01/20 09:31:39;;;;;;;2.63;1.27;;;;;;;6.50;65.80;96283.38;4892463;29;20240;-79
2021/01/20 09:34:05;;;;;;;4.28;1.25;;;;;;;6.48;65.89;96281.03;4913334;29;20427;-79
2021/01/20 09:36:31;;;;;;;3.15;1.10;;;;;;;6.44;65.82;96277.34;4888689;29;20037;-79
2021/01/20 09:38:59;;;;;;;2.80;1.20;;;;;;;6.58;65.66;96290.75;4890677;29;20468;-78
2021/01/20 09:41:28;;;;;;;2.47;1.30;;;;;;;6.59;64.99;96294.09;4904935;29;20032;-78
2021/01/20 09:43:54;;;;;;;4.75;1.45;;;;;;;6.82;65.23;96295.66;4892160;29;20030;-79
2021/01/20 09:46:20;;;;;;;2.60;1.58;;;;;;;6.90;64.82;96293.41;4912275;29;20534;-78
2021/01/20 09:48:46;;;;;;;3.25;1.35;;;;;;;6.87;64.83;96291.34;4909637;29;20024;-78
2021/01/20 09:51:12;;;;;;;3.95;1.50;;;;;;;6.84;64.75;96291.81;4876604;29;20049;-78
2021/01/20 09:53:38;;;;;;;3.15;1.30;;;;;;;6.80;64.50;96295.88;4901696;29;20043;-78
2021/01/20 09:56:05;;;;;;;3.10;1.15;;;;;;;6.92;64.72;96288.00;4911276;29;20028;-78
2021/01/20 09:58:31;;;;;;;3.40;1.50;;;;;;;7.00;64.73;96287.56;4905288;29;20040;-78
2021/01/20 10:00:58;;;;;;;2.85;1.30;;;;;;;7.09;64.40;96293.09;4905128;29;20036;-79
2021/01/20 10:03:23;;;;;;;3.53;1.17;;;;;;;7.09;64.34;96282.75;4891972;29;20044;-78
2021/01/20 10:05:50;;;;;;;5.82;1.30;;;;;;;6.96;64.41;96283.13;4903966;29;20443;-78
2021/01/20 10:08:15;;;;;;;2.72;1.00;;;;;;;7.06;64.85;96291.00;4889438;29;20071;-78
2021/01/20 10:10:41;;;;;;;1.80;0.98;;;;;;;7.08;64.57;96286.38;4881960;29;20481;-78
2021/01/20 10:13:06;;;;;;;2.80;0.70;;;;;;;7.24;64.42;96290.66;4889545;29;20234;-77
2021/01/20 10:15:32;;;;;;;3.53;1.20;;;;;;;7.15;64.07;96273.25;4908087;29;20044;-78
2021/01/20 10:17:58;;;;;;;1.92;0.77;;;;;;;7.28;64.83;96267.66;4911918;29;20040;-78
2021/01/20 10:20:24;;;;;;;6.07;1.27;;;;;;;7.25;64.80;96261.16;4900977;29;20047;-77
2021/01/20 10:22:50;;;;;;;3.05;1.17;;;;;;;7.20;64.21;96257.75;4898894;29;20024;-79
2021/01/20 10:25:16;;;;;;;1.85;0.82;;;;;;;7.21;64.26;96244.53;4913045;29;20110;-79
2021/01/20 10:27:42;;;;;;;3.30;1.13;;;;;;;7.35;63.63;96239.78;4902747;29;20044;-78
2021/01/20 10:30:09;;;;;;;2.20;1.00;;;;;;;7.48;64.22;96238.56;4897632;29;20407;-79
2021/01/20 10:32:35;;;;;;;3.25;1.00;;;;;;;7.43;63.99;96235.94;4900957;29;20044;-79
2021/01/20 10:35:01;;;;;;;3.95;1.33;;;;;;;7.40;64.48;96228.66;4901374;29;20055;-79
2021/01/20 10:37:26;;;;;;;1.30;0.95;;;;;;;7.44;64.47;96229.72;4886228;29;20044;-79
2021/01/20 10:39:52;;;;;;;3.05;1.13;;;;;;;7.31;63.89;96218.75;4902261;29;20032;-78
2021/01/20 10:42:20;;;;;;;2.42;0.93;;;;;;;7.58;63.55;96217.91;4911728;29;20152;-79
2021/01/20 10:44:47;;;;;;;2.38;0.98;;;;;;;7.40;64.63;96205.34;4908441;29;20330;-78
2021/01/20 10:47:12;;;;;;;2.25;0.85;;;;;;;7.46;64.07;96205.13;4892725;29;20056;-78
2021/01/20 10:49:38;;;;;;;1.98;1.00;;;;;;;7.40;64.18;96207.94;4891611;29;20043;-78
2021/01/20 10:52:04;;;;;;;4.32;1.45;;;;;;;7.40;64.37;96194.97;4912020;29;20051;-77
2021/01/20 10:54:30;;;;;;;2.22;0.73;;;;;;;7.59;63.50;96187.59;4910298;29;20075;-79
2021/01/20 10:56:58;;;;;;;1.65;0.70;;;;;;;7.53;63.99;96198.97;4891572;29;20051;-78
2021/01/20 10:59:23;;;;;;;1.73;1.13;;;;;;;7.56;64.25;96185.53;4900971;29;20047;-78
2021/01/20 11:01:49;;;;;;;3.17;1.00;;;;;;;7.73;63.20;96178.38;4903448;29;20396;-78
2021/01/20 11:04:17;;;;;;;2.17;1.00;;;;;;;7.62;63.54;96172.34;4910889;29;20051;-78
2021/01/20 11:06:43;;;;;;;4.35;1.60;;;;;;;7.60;63.26;96174.41;4892129;29;20052;-78
2021/01/20 11:09:08;;;;;;;2.05;0.77;;;;;;;7.86;63.19;96167.59;4888168;29;20051;-78
2021/01/20 11:11:34;;;;;;;2.20;0.70;;;;;;;7.86;62.74;96162.41;4893528;29;20036;-78
2021/01/20 11:14:00;;;;;;;2.75;1.05;;;;;;;7.98;62.79;96159.59;4884542;29;20039;-78
2021/01/20 11:16:26;;;;;;;2.63;0.90;;;;;;;8.07;62.76;96160.66;4898860;29;20039;-78
2021/01/20 11:18:52;;;;;;;2.05;0.68;;;;;;;8.14;62.53;96162.25;4911342;29;20283;-78
2021/01/20 11:21:17;;;;;;;3.25;0.95;;;;;;;8.12;62.46;96153.94;4871371;29;20040;-78
2021/01/20 11:23:43;;;;;;;1.63;0.77;;;;;;;8.21;61.51;96135.06;4883004;29;20463;-78
2021/01/20 11:26:09;;;;;;;2.53;0.95;;;;;;;8.30;60.98;96135.34;4910877;29;20254;-78
2021/01/20 11:28:35;;;;;;;1.13;0.85;;;;;;;8.31;61.73;96138.69;4911649;29;20334;-78
2021/01/20 11:31:04;;;;;;;3.55;0.82;;;;;;;8.24;62.05;96131.97;4899717;29;20063;-78
2021/01/20 11:33:30;;;;;;;2.03;0.60;;;;;;;8.28;61.65;96134.03;4910540;29;20048;-79
2021/01/20 11:35:56;;;;;;;3.40;1.05;;;;;;;8.30;61.78;96135.34;4907673;29;20487;-79
2021/01/20 11:38:22;;;;;;;1.23;0.80;;;;;;;8.18;61.42;96121.81;4907549;29;20047;-78
2021/01/20 11:40:48;;;;;;;2.15;0.82;;;;;;;8.22;61.71;96120.28;4911018;29;20036;-79
2021/01/20 11:43:14;;;;;;;1.60;0.60;;;;;;;8.01;62.37;96117.59;4908713;29;20271;-78
2021/01/20 11:45:40;;;;;;;2.60;0.80;;;;;;;8.17;61.89;96110.66;4901261;29;20163;-77